Palmdale, CA

1:37 AM PDT on August 30, 2014 (GMT -0700)
Our Top Notch Ranch LV | Change Station
CLOSE
Current Station
Personal Weather Station
Location: Leona Valley, CA
Elevation: 3383 ft
Nearby Weather Stations

Elev 3383 ft 34.61 °N, 118.24 °W | Updated 14 minutes ago

Clear
Clear
77.0 °F
Feels Like 77 °F
N
2.0
Wind Variable Wind from WNW
Gusts 8.0 mph

Today
High -- | Low -- °F
--% Chance of Precip.
Yesterday
High -- | Low -- °F
Precip. -- in
6:24 AM 7:21 PM
Waxing Crescent, 20% visible
Pressure 29.82 in
Visibility 10.0 miles
Clouds Clear
Heat Index 77 °F
Dew Point 36 °F
Humidity 23%
Rainfall 0.00 in
Snow Depth Not available.
UV 0 out of 12
Pollen 7.80 out of 12
Air Quality Not available.
Flu Activity Not available.
METAR KPMD 300753Z AUTO 23008KT 10SM CLR 23/M01 A2992 RMK AO2 SLP098 T02331006 403830172

More Conditions Fewer Conditions

Pressure 29.82 in
Visibility 10.0 miles
Clouds Clear
Heat Index 77 °F
Dew Point 36 °F
Humidity 23%
Rainfall 0.00 in
Snow Depth Not available.
UV 0 out of 12
Pollen 7.80 out of 12
Air Quality Not available.
Flu Activity Not available.
METAR KPMD 300753Z AUTO 23008KT 10SM CLR 23/M01 A2992 RMK AO2 SLP098 T02331006 403830172

More Conditions Fewer Conditions

10-Day Weather Forecast

Almanac

Astronomy

Aug. 30, 2014 Rise Set
Actual Time 6:24 AM PDT 7:21 PM PDT
Civil Twilight 5:58 AM PDT 7:47 PM PDT
Nautical Twilight 5:28 AM PDT 8:18 PM PDT
Astronomical Twilight 4:56 AM PDT 8:49 PM PDT
Moon 11:03 AM PDT 10:13 PM PDT
Length of Visible Light 13h 48m
Length of Day
12h 57m
Tomorrow will be 2m 3s shorter.
Waxing Crescent, 20% of the Moon is Illuminated
Today
Waxing Crescent
Sep 2
First Quarter
Sep 8
Full
Sep 15
Last Quarter
Sep 24
New

Today's Extremes

State Highs State Lows

Community

WunderPhotos

Upload Photos

1,748,472 photos uploaded!

Nearby

Air Quality

  Air Quality AQ Index Pollutant
Yesterday Good
OZONE
Yesterday Good
PM10
Saturday Good
OZONE
Saturday Good
PM10
Saturday Good
CO
Saturday Good
NO2

Snow Depth

Station Depth Elevation
Leavitt Lake 0 in 9400 ft
Leavitt Meadows 0 in 7200 ft
Summit Meadow 1 in 9122 ft
Monitor Pass 0 in 8350 ft
Blue Lakes 0 in 8000 ft

Earthquake Activity

City Distance Mag. Time & Date
No recent earthquake activity has been reported nearby.
Minimum magnitude displayed is 2.5.

Coastal Water Temperatures

Place Temperature
No Stations Reporting

Nearby Weather Stations